METAR Data

Data at: 1909 UTC 21 Nov 2018

METAR for:KTAN (Taunton Muni, MA, US)
Text:KTAN 211852Z AUTO 22009KT 10SM FEW090 OVC110 06/M04 A2988 RMK AO2 SLP118 T00561039
Temperature: 5.6°C ( 42°F)
Dewpoint: -3.9°C ( 25°F) [RH = 50%]
Pressure (altimeter):29.88 inches Hg (1011.9 mb) [Sea level pressure: 1011.8 mb]
Winds:from the SW (220 degrees) at 10 MPH (9 knots; 4.6 m/s)
Visibility:10 or more sm (16+ km)
Ceiling:11000 feet AGL
Clouds: few clouds at 9000 feet AGL, overcast cloud deck at 11000 feet AGL
QC Flag:automated observation with no human augmentation